createdAt,value
2022-10-29T00:01:28.370Z,101413.72
2022-10-29T00:03:55.802Z,101410.16
2022-10-29T00:06:23.550Z,101406.63
2022-10-29T00:08:50.990Z,101402.69
2022-10-29T00:11:21.350Z,101401.28
2022-10-29T00:13:53.982Z,101397.38
2022-10-29T00:16:24.471Z,101392.63
2022-10-29T00:18:52.296Z,101398.44
2022-10-29T00:21:23.184Z,101403.47
2022-10-29T00:23:51.822Z,101399.41
2022-10-29T00:26:21.750Z,101414.16
2022-10-29T00:28:52.281Z,101399.59
2022-10-29T00:31:20.384Z,101406.09
2022-10-29T00:33:48.188Z,101400.88
2022-10-29T00:36:21.595Z,101396.78
2022-10-29T00:38:51.759Z,101389.63
2022-10-29T00:41:23.373Z,101386.94
2022-10-29T00:43:51.797Z,101386.84
2022-10-29T00:46:30.808Z,101383.50
2022-10-29T00:48:59.121Z,101382.06
2022-10-29T00:51:30.247Z,101377.13
2022-10-29T00:54:03.281Z,101383.97
2022-10-29T00:56:35.682Z,101380.84
2022-10-29T00:59:03.831Z,101383.41
2022-10-29T01:01:31.960Z,101381.34
2022-10-29T01:04:02.777Z,101374.81
2022-10-29T01:06:31.483Z,101367.84
2022-10-29T01:08:59.098Z,101364.13
2022-10-29T01:11:45.464Z,101361.81
2022-10-29T01:14:34.283Z,101355.78
2022-10-29T01:17:11.325Z,101354.13
2022-10-29T01:19:53.014Z,101354.97
2022-10-29T01:22:44.392Z,101345.94
2022-10-29T01:25:32.767Z,101347.69
2022-10-29T01:28:13.936Z,101347.66
2022-10-29T01:31:13.954Z,101340.25
2022-10-29T01:34:20.571Z,101344.19
2022-10-29T01:36:50.949Z,101347.22
2022-10-29T01:39:27.452Z,101342.25
2022-10-29T01:42:02.332Z,101341.22
2022-10-29T01:44:42.714Z,101338.53
2022-10-29T01:47:19.229Z,101341.09
2022-10-29T01:49:51.550Z,101325.31
2022-10-29T01:52:21.962Z,101330.19
2022-10-29T01:54:49.496Z,101332.41
2022-10-29T01:57:43.055Z,101332.38
2022-10-29T02:00:14.749Z,101325.53
2022-10-29T02:03:00.852Z,101323.50
2022-10-29T02:05:34.908Z,101327.06
2022-10-29T02:08:14.082Z,101324.06
2022-10-29T02:10:55.573Z,101327.53
2022-10-29T02:13:30.638Z,101323.59
2022-10-29T02:16:00.327Z,101322.56
2022-10-29T02:18:27.739Z,101323.72
2022-10-29T02:20:55.559Z,101323.56
2022-10-29T02:23:22.944Z,101322.78
2022-10-29T02:25:50.435Z,101321.38
2022-10-29T02:28:18.002Z,101319.38
2022-10-29T02:30:45.399Z,101311.38
2022-10-29T02:33:15.412Z,101303.66
2022-10-29T02:35:42.795Z,101304.59
2022-10-29T02:38:10.066Z,101303.09
2022-10-29T02:40:37.404Z,101305.88
2022-10-29T02:43:04.730Z,101304.50
2022-10-29T02:45:32.254Z,101301.03
2022-10-29T02:47:59.984Z,101308.31
2022-10-29T02:50:27.426Z,101301.72
2022-10-29T02:52:54.781Z,101301.03
2022-10-29T02:55:22.116Z,101299.50
2022-10-29T02:57:49.673Z,101303.34
2022-10-29T03:00:17.325Z,101297.19
2022-10-29T03:02:44.860Z,101294.88
2022-10-29T03:05:12.361Z,101290.38
2022-10-29T03:07:39.710Z,101289.31
2022-10-29T03:10:08.149Z,101289.31
2022-10-29T03:12:35.955Z,101286.75
2022-10-29T03:15:03.443Z,101286.97
2022-10-29T03:17:30.818Z,101289.06
2022-10-29T03:19:58.172Z,101287.94
2022-10-29T03:22:25.496Z,101287.22
2022-10-29T03:24:52.827Z,101285.28
2022-10-29T03:27:20.427Z,101284.78
2022-10-29T03:29:47.922Z,101287.69
2022-10-29T03:32:15.348Z,101298.44
2022-10-29T03:34:42.844Z,101296.97
2022-10-29T03:37:10.298Z,101293.19
2022-10-29T03:39:37.636Z,101288.59
2022-10-29T03:42:05.254Z,101283.16
2022-10-29T03:44:32.647Z,101281.09
2022-10-29T03:47:00.101Z,101274.22
2022-10-29T03:49:28.842Z,101280.72
2022-10-29T03:51:59.848Z,101274.38
2022-10-29T03:54:33.394Z,101276.66
2022-10-29T03:57:00.984Z,101270.75
2022-10-29T03:59:28.518Z,101268.06
2022-10-29T04:02:02.172Z,101272.56
2022-10-29T04:04:30.026Z,101270.56
2022-10-29T04:06:57.368Z,101273.09
2022-10-29T04:09:25.108Z,101275.63
2022-10-29T04:11:53.588Z,101271.31
2022-10-29T04:14:22.121Z,101273.47
2022-10-29T04:16:50.051Z,101278.47
2022-10-29T04:19:17.958Z,101276.59
2022-10-29T04:26:34.677Z,101277.16
2022-10-29T04:30:10.414Z,101292.34
2022-10-29T04:32:38.448Z,101291.97
2022-10-29T04:35:06.798Z,101291.63
2022-10-29T04:37:36.871Z,101298.59
2022-10-29T04:40:04.688Z,101296.47
2022-10-29T04:42:39.636Z,101308.00
2022-10-29T04:45:10.907Z,101301.97
2022-10-29T04:47:40.856Z,101313.06
2022-10-29T04:50:08.662Z,101310.03
2022-10-29T04:52:36.253Z,101315.16
2022-10-29T04:55:03.746Z,101311.91
2022-10-29T04:57:31.122Z,101313.63
2022-10-29T04:59:58.632Z,101319.84
2022-10-29T05:02:26.086Z,101310.16
2022-10-29T05:04:53.860Z,101305.84
2022-10-29T05:07:21.731Z,101306.63
2022-10-29T05:09:49.325Z,101320.41
2022-10-29T05:12:17.311Z,101315.97
2022-10-29T05:14:44.853Z,101319.69
2022-10-29T05:17:12.339Z,101318.06
2022-10-29T05:19:46.280Z,101317.75
2022-10-29T05:22:13.814Z,101324.66
2022-10-29T05:24:42.105Z,101330.22
2022-10-29T05:27:09.497Z,101328.59
2022-10-29T05:29:36.963Z,101328.94
2022-10-29T05:32:04.960Z,101341.59
2022-10-29T05:34:32.385Z,101340.19
2022-10-29T05:36:59.738Z,101347.59
2022-10-29T05:39:27.457Z,101350.81
2022-10-29T05:41:59.846Z,101348.59
2022-10-29T05:44:27.368Z,101349.66
2022-10-29T05:46:54.718Z,101353.31
2022-10-29T05:49:22.188Z,101352.34
2022-10-29T05:51:50.889Z,101351.59
2022-10-29T05:54:19.034Z,101351.81
2022-10-29T05:56:46.443Z,101343.59
2022-10-29T05:59:14.013Z,101347.50
2022-10-29T06:01:41.511Z,101348.31
2022-10-29T06:04:09.082Z,101352.16
2022-10-29T06:06:39.656Z,101352.16
2022-10-29T06:09:08.144Z,101351.69
2022-10-29T06:11:35.852Z,101345.72
2022-10-29T06:14:03.191Z,101343.78
2022-10-29T06:16:30.509Z,101348.44
2022-10-29T06:18:57.781Z,101335.44
2022-10-29T06:21:25.133Z,101342.72
2022-10-29T06:23:52.420Z,101348.97
2022-10-29T06:26:20.115Z,101344.75
2022-10-29T06:28:48.179Z,101343.22
2022-10-29T06:31:15.682Z,101346.25
2022-10-29T06:33:43.065Z,101343.50
2022-10-29T06:36:10.728Z,101337.19
2022-10-29T06:38:38.181Z,101328.47
2022-10-29T06:41:05.993Z,101347.13
2022-10-29T06:43:33.710Z,101335.53
2022-10-29T06:46:01.288Z,101340.22
2022-10-29T06:48:28.732Z,101336.16
2022-10-29T06:50:58.629Z,101338.69
2022-10-29T06:53:26.790Z,101337.47
2022-10-29T06:55:54.214Z,101343.63
2022-10-29T06:58:21.973Z,101345.25
2022-10-29T07:00:49.449Z,101346.38
2022-10-29T07:03:19.092Z,101348.00
2022-10-29T07:05:47.502Z,101353.03
2022-10-29T07:08:14.966Z,101366.22
2022-10-29T07:10:42.611Z,101362.44
2022-10-29T07:13:10.090Z,101368.09
2022-10-29T07:15:37.525Z,101374.38
2022-10-29T07:18:07.355Z,101361.53
2022-10-29T07:20:37.588Z,101362.81
2022-10-29T07:23:05.489Z,101360.19
2022-10-29T07:25:33.939Z,101358.34
2022-10-29T07:28:07.006Z,101362.19
2022-10-29T07:30:34.865Z,101353.28
2022-10-29T07:33:02.235Z,101344.22
2022-10-29T07:35:29.759Z,101350.97
2022-10-29T07:38:05.316Z,101353.84
2022-10-29T07:40:39.733Z,101348.38
2022-10-29T07:43:11.119Z,101344.50
2022-10-29T07:45:38.256Z,101335.59
2022-10-29T07:48:06.939Z,101332.47
2022-10-29T07:50:34.168Z,101343.00
2022-10-29T07:53:04.028Z,101350.09
2022-10-29T07:55:31.615Z,101357.06
2022-10-29T07:58:00.438Z,101358.50
2022-10-29T08:00:30.390Z,101354.66
2022-10-29T08:02:58.293Z,101358.47
2022-10-29T08:05:27.362Z,101363.47
2022-10-29T08:07:55.614Z,101356.03
2022-10-29T08:10:24.390Z,101354.47
2022-10-29T08:12:57.755Z,101359.03
2022-10-29T08:15:26.813Z,101363.38
2022-10-29T08:17:54.364Z,101341.44
2022-10-29T08:20:23.524Z,101341.81
2022-10-29T08:22:50.813Z,101341.72
2022-10-29T08:25:18.514Z,101348.16
2022-10-29T08:27:46.267Z,101351.34
2022-10-29T08:30:14.078Z,101341.38
2022-10-29T08:32:47.339Z,101340.53
2022-10-29T08:35:15.177Z,101348.09
2022-10-29T08:37:43.608Z,101354.47
2022-10-29T08:40:53.338Z,101360.50
2022-10-29T08:43:32.716Z,101356.28
2022-10-29T08:46:00.179Z,101351.84
2022-10-29T08:48:47.311Z,101349.16
2022-10-29T08:51:21.978Z,101350.53
2022-10-29T08:54:17.058Z,101349.28
2022-10-29T08:56:44.272Z,101346.63
2022-10-29T08:59:18.259Z,101347.69
2022-10-29T09:01:46.288Z,101337.97
2022-10-29T09:04:34.628Z,101340.56
2022-10-29T09:07:26.001Z,101346.50
2022-10-29T09:09:59.201Z,101343.75
2022-10-29T09:12:26.395Z,101334.03
2022-10-29T09:15:24.559Z,101338.53
2022-10-29T09:18:11.856Z,101330.16
2022-10-29T09:20:42.125Z,101329.69
2022-10-29T09:23:12.524Z,101317.84
2022-10-29T09:25:51.097Z,101323.47
2022-10-29T09:28:39.296Z,101320.69
2022-10-29T09:31:09.555Z,101317.38
2022-10-29T09:33:37.926Z,101313.94
2022-10-29T09:36:14.646Z,101304.75
2022-10-29T09:38:52.123Z,101298.19
2022-10-29T09:41:22.012Z,101296.06
2022-10-29T09:43:55.899Z,101292.81
2022-10-29T09:46:52.846Z,101288.34
2022-10-29T09:49:49.081Z,101277.53
2022-10-29T09:52:19.089Z,101281.19
2022-10-29T09:54:49.877Z,101280.03
2022-10-29T09:57:28.111Z,101272.28
2022-10-29T10:00:29.466Z,101271.53
2022-10-29T10:03:14.949Z,101261.25
2022-10-29T10:06:03.882Z,101253.72
2022-10-29T10:08:32.648Z,101254.50
2022-10-29T10:11:07.542Z,101249.09
2022-10-29T10:13:37.975Z,101237.06
2022-10-29T10:16:06.629Z,101245.50
2022-10-29T10:18:41.412Z,101226.03
2022-10-29T10:21:11.597Z,101225.91
2022-10-29T10:23:50.019Z,101224.28
2022-10-29T10:26:34.812Z,101219.53
2022-10-29T10:29:17.248Z,101222.97
2022-10-29T10:31:46.838Z,101213.50
2022-10-29T10:34:18.536Z,101201.00
2022-10-29T10:37:11.015Z,101195.41
2022-10-29T10:40:00.515Z,101197.84
2022-10-29T10:42:34.934Z,101193.41
2022-10-29T10:45:24.578Z,101186.59
2022-10-29T10:47:55.366Z,101178.22
2022-10-29T10:50:30.279Z,101180.63
2022-10-29T10:53:02.445Z,101178.66
2022-10-29T10:55:37.874Z,101173.31
2022-10-29T10:58:13.930Z,101165.09
2022-10-29T11:00:47.797Z,101160.72
2022-10-29T11:06:00.960Z,101157.47
2022-10-29T11:08:34.566Z,101155.97
2022-10-29T11:11:17.448Z,101162.59
2022-10-29T11:13:44.706Z,101154.28
2022-10-29T11:16:30.704Z,101152.28
2022-10-29T11:19:07.268Z,101141.00
2022-10-29T11:21:46.505Z,101142.28
2022-10-29T11:24:30.291Z,101139.84
2022-10-29T11:27:08.067Z,101136.91
2022-10-29T11:29:55.089Z,101130.88
2022-10-29T11:32:38.907Z,101125.69
2022-10-29T11:35:13.725Z,101124.06
2022-10-29T11:37:53.050Z,101119.16
2022-10-29T11:40:34.127Z,101117.94
2022-10-29T11:43:05.699Z,101120.63
2022-10-29T11:45:48.412Z,101117.16
2022-10-29T11:48:41.247Z,101118.50
2022-10-29T11:51:32.666Z,101113.91
2022-10-29T11:54:37.519Z,101111.19
2022-10-29T11:57:32.895Z,101101.59
2022-10-29T12:00:12.410Z,101106.66
2022-10-29T12:03:35.728Z,101094.75
2022-10-29T12:06:15.676Z,101092.41
2022-10-29T12:09:02.029Z,101086.22
2022-10-29T12:11:45.198Z,101095.78
2022-10-29T12:14:18.206Z,101092.50
2022-10-29T12:17:09.535Z,101083.03
2022-10-29T12:20:02.116Z,101092.28
2022-10-29T12:22:35.131Z,101081.19
2022-10-29T12:25:26.560Z,101075.38
2022-10-29T12:28:11.972Z,101079.63
2022-10-29T12:30:47.293Z,101075.56
2022-10-29T12:33:25.201Z,101067.97
2022-10-29T12:36:18.982Z,101070.81
2022-10-29T12:38:55.009Z,101070.97
2022-10-29T12:41:31.562Z,101070.53
2022-10-29T12:44:13.464Z,101063.81
2022-10-29T12:47:23.661Z,101067.97
2022-10-29T12:49:51.295Z,101060.94
2022-10-29T12:52:24.632Z,101067.97
2022-10-29T12:54:53.448Z,101068.63
2022-10-29T12:57:28.924Z,101061.97
2022-10-29T13:00:16.422Z,101058.13
2022-10-29T13:02:44.541Z,101068.66
2022-10-29T13:05:14.974Z,101060.28
2022-10-29T13:07:45.374Z,101053.44
2022-10-29T13:10:22.170Z,101054.44
2022-10-29T13:12:58.307Z,101053.25
2022-10-29T13:15:34.162Z,101049.59
2022-10-29T13:18:17.958Z,101048.38
2022-10-29T13:20:52.152Z,101048.13
2022-10-29T13:23:27.174Z,101050.84
2022-10-29T13:26:08.334Z,101043.81
2022-10-29T13:28:35.576Z,101039.50
2022-10-29T13:31:02.839Z,101032.47
2022-10-29T13:33:30.071Z,101031.66
2022-10-29T13:36:01.185Z,101040.31
2022-10-29T13:38:52.037Z,101039.50
2022-10-29T13:41:37.092Z,101033.41
2022-10-29T13:44:17.271Z,101026.19
2022-10-29T13:46:56.659Z,101027.91
2022-10-29T13:49:26.151Z,101032.34
2022-10-29T13:51:59.544Z,101032.16
2022-10-29T13:54:50.766Z,101042.03
2022-10-29T13:57:25.631Z,101027.16
2022-10-29T14:00:07.287Z,101040.84
2022-10-29T14:02:43.819Z,101034.91
2022-10-29T14:05:11.213Z,101031.28
2022-10-29T14:08:18.900Z,101027.50
2022-10-29T14:10:50.372Z,101026.53
2022-10-29T14:13:40.963Z,101024.13
2022-10-29T14:16:13.539Z,101022.00
2022-10-29T14:18:50.984Z,101014.50
2022-10-29T14:21:22.103Z,101010.53
2022-10-29T14:23:56.079Z,101015.38
2022-10-29T14:26:24.227Z,101012.16
2022-10-29T14:28:54.888Z,101010.38
2022-10-29T14:31:25.728Z,101011.91
2022-10-29T14:34:00.702Z,101012.13
2022-10-29T14:36:37.285Z,101006.84
2022-10-29T14:39:37.011Z,101008.34
2022-10-29T14:42:45.230Z,101009.56
2022-10-29T14:45:25.190Z,101009.91
2022-10-29T14:47:55.644Z,101004.56
2022-10-29T14:50:26.330Z,101001.91
2022-10-29T14:53:01.283Z,101003.84
2022-10-29T14:55:37.467Z,101000.81
2022-10-29T14:58:20.877Z,100993.88
2022-10-29T15:01:13.264Z,100995.44
2022-10-29T15:03:46.632Z,100990.72
2022-10-29T15:06:25.122Z,100995.94
2022-10-29T15:09:00.823Z,100992.66
2022-10-29T15:11:47.467Z,100994.78
2022-10-29T15:14:37.274Z,100991.94
2022-10-29T15:17:31.042Z,100998.03
2022-10-29T15:20:03.435Z,101011.22
2022-10-29T15:22:41.313Z,101015.66
2022-10-29T15:25:17.935Z,101012.00
2022-10-29T15:27:48.647Z,101005.06
2022-10-29T15:30:28.155Z,101011.03
2022-10-29T15:32:59.360Z,101008.72
2022-10-29T15:35:28.171Z,101011.69
2022-10-29T15:38:01.057Z,101010.13
2022-10-29T15:40:28.687Z,101005.28
2022-10-29T15:42:56.201Z,101010.31
2022-10-29T15:45:23.659Z,101016.31
2022-10-29T15:47:56.995Z,101001.09
2022-10-29T15:50:48.511Z,100999.47
2022-10-29T15:53:19.336Z,101011.50
2022-10-29T15:55:52.213Z,101017.38
2022-10-29T15:58:28.677Z,101013.81
2022-10-29T16:00:55.959Z,101022.06
2022-10-29T16:03:26.180Z,101030.19
2022-10-29T16:05:59.300Z,101020.97
2022-10-29T16:08:33.422Z,101025.25
2022-10-29T16:11:02.197Z,101031.44
2022-10-29T16:13:33.011Z,101029.88
2022-10-29T16:16:01.214Z,101022.66
2022-10-29T16:18:30.973Z,101020.28
2022-10-29T16:21:00.800Z,101031.31
2022-10-29T16:23:28.028Z,101025.88
2022-10-29T16:26:01.052Z,101028.06
2022-10-29T16:28:31.806Z,101034.59
2022-10-29T16:31:03.023Z,101025.63
2022-10-29T16:33:30.422Z,101023.34
2022-10-29T16:35:57.731Z,101026.94
2022-10-29T16:38:31.384Z,101027.56
2022-10-29T16:41:02.181Z,101036.13
2022-10-29T16:43:29.511Z,101036.28
2022-10-29T16:45:58.574Z,101031.53
2022-10-29T16:48:30.999Z,101036.81
2022-10-29T16:51:04.041Z,101038.56
2022-10-29T16:53:31.415Z,101046.72
2022-10-29T16:56:01.780Z,101044.09
2022-10-29T16:58:29.114Z,101049.75
2022-10-29T17:01:05.048Z,101050.03
2022-10-29T17:03:32.807Z,101048.56
2022-10-29T17:06:08.820Z,101040.28
2022-10-29T17:08:37.687Z,101045.38
2022-10-29T17:11:08.052Z,101045.44
2022-10-29T17:13:38.574Z,101037.09
2022-10-29T17:16:08.071Z,101038.19
2022-10-29T17:18:38.194Z,101043.84
2022-10-29T17:21:05.917Z,101040.97
2022-10-29T17:23:33.517Z,101050.13
2022-10-29T17:26:01.330Z,101039.38
2022-10-29T17:28:28.973Z,101038.56
2022-10-29T17:30:56.336Z,101032.91
2022-10-29T17:33:23.780Z,101025.94
2022-10-29T17:36:05.757Z,101024.59
2022-10-29T17:38:35.928Z,101031.31
2022-10-29T17:41:07.455Z,101021.16
2022-10-29T17:43:34.711Z,101016.31
2022-10-29T17:46:04.711Z,101013.09
2022-10-29T17:48:32.036Z,101020.59
2022-10-29T17:51:01.344Z,101023.78
2022-10-29T17:53:30.008Z,101021.69
2022-10-29T17:56:00.821Z,101020.31
2022-10-29T17:58:28.334Z,101011.97
2022-10-29T18:01:03.629Z,101013.09
2022-10-29T18:03:34.150Z,101016.34
2022-10-29T18:06:02.559Z,101023.66
2022-10-29T18:08:34.794Z,101023.41
2022-10-29T18:11:10.083Z,101015.88
2022-10-29T18:13:41.714Z,101021.25
2022-10-29T18:16:11.046Z,101023.41
2022-10-29T18:18:54.379Z,101019.66
2022-10-29T18:21:27.888Z,101024.53
2022-10-29T18:23:55.176Z,101032.31
2022-10-29T18:26:36.149Z,101026.69
2022-10-29T18:29:07.441Z,101031.25
2022-10-29T18:31:36.686Z,101039.03
2022-10-29T18:34:06.778Z,101031.50
2022-10-29T18:36:35.206Z,101029.38
2022-10-29T18:39:04.085Z,101034.22
2022-10-29T18:41:31.615Z,101024.81
2022-10-29T18:44:01.883Z,101025.13
2022-10-29T18:46:29.186Z,101032.09
2022-10-29T18:48:56.455Z,101027.25
2022-10-29T18:51:27.265Z,101027.53
2022-10-29T18:53:55.819Z,101019.22
2022-10-29T18:56:27.157Z,101016.00
2022-10-29T18:59:00.722Z,101022.16
2022-10-29T19:01:30.719Z,101021.34
2022-10-29T19:04:00.435Z,101023.50
2022-10-29T19:06:31.448Z,101029.16
2022-10-29T19:09:05.069Z,101026.72
2022-10-29T19:11:32.507Z,101031.78
2022-10-29T19:14:03.076Z,101030.97
2022-10-29T19:16:31.907Z,101046.28
2022-10-29T19:21:41.433Z,101028.56
2022-10-29T19:24:14.850Z,101026.69
2022-10-29T19:26:44.710Z,101026.13
2022-10-29T19:29:15.401Z,101022.94
2022-10-29T19:31:44.906Z,101023.97
2022-10-29T19:34:12.259Z,101026.41
2022-10-29T19:36:39.610Z,101027.75
2022-10-29T19:39:07.641Z,101034.44
2022-10-29T19:41:35.193Z,101030.97
2022-10-29T19:44:03.229Z,101030.44
2022-10-29T19:46:30.939Z,101024.56
2022-10-29T19:48:58.616Z,101037.69
2022-10-29T19:51:26.183Z,101035.81
2022-10-29T19:53:53.489Z,101024.78
2022-10-29T19:56:21.535Z,101032.31
2022-10-29T19:58:51.391Z,101035.25
2022-10-29T20:01:19.164Z,101035.25
2022-10-29T20:03:47.520Z,101045.19
2022-10-29T20:06:15.480Z,101047.06
2022-10-29T20:08:43.273Z,101040.06
2022-10-29T20:11:10.625Z,101031.47
2022-10-29T20:13:38.053Z,101029.31
2022-10-29T20:16:15.938Z,101037.38
2022-10-29T20:18:43.709Z,101038.44
2022-10-29T20:21:12.267Z,101037.63
2022-10-29T20:23:39.956Z,101036.03
2022-10-29T20:26:07.822Z,101044.06
2022-10-29T20:28:35.379Z,101048.09
2022-10-29T20:31:17.653Z,101044.84
2022-10-29T20:33:52.533Z,101038.94
2022-10-29T20:36:20.207Z,101044.28
2022-10-29T20:38:49.035Z,101046.41
2022-10-29T20:41:17.083Z,101046.97
2022-10-29T20:44:01.059Z,101051.22
2022-10-29T20:46:29.034Z,101048.06
2022-10-29T20:48:56.431Z,101052.31
2022-10-29T20:51:24.833Z,101056.28
2022-10-29T20:53:52.839Z,101052.50
2022-10-29T20:56:24.455Z,101048.53
2022-10-29T20:58:52.076Z,101042.56
2022-10-29T21:01:21.340Z,101041.50
2022-10-29T21:03:49.846Z,101047.38
2022-10-29T21:06:17.808Z,101039.34
2022-10-29T21:08:46.666Z,101043.25
2022-10-29T21:11:15.799Z,101046.53
2022-10-29T21:13:43.177Z,101046.78
2022-10-29T21:16:15.213Z,101051.00
2022-10-29T21:18:52.904Z,101050.13
2022-10-29T21:21:20.759Z,101042.72
2022-10-29T21:23:51.074Z,101049.69
2022-10-29T21:26:23.698Z,101057.50
2022-10-29T21:28:52.484Z,101050.25
2022-10-29T21:31:21.363Z,101047.03
2022-10-29T21:33:50.306Z,101051.09
2022-10-29T21:36:17.636Z,101043.03
2022-10-29T21:38:44.907Z,101043.22
2022-10-29T21:41:12.176Z,101041.31
2022-10-29T21:43:39.651Z,101036.41
2022-10-29T21:46:07.406Z,101031.28
2022-10-29T21:48:34.748Z,101038.78
2022-10-29T21:51:07.942Z,101032.38
2022-10-29T21:53:38.265Z,101023.72
2022-10-29T21:56:08.054Z,101020.69
2022-10-29T21:58:35.406Z,101016.94
2022-10-29T22:01:07.126Z,101013.38
2022-10-29T22:03:36.224Z,101009.47
2022-10-29T22:06:05.601Z,100997.84
2022-10-29T22:08:34.151Z,101001.50
2022-10-29T22:11:01.924Z,101000.00
2022-10-29T22:13:30.741Z,100999.47
2022-10-29T22:15:58.333Z,101008.25
2022-10-29T22:18:26.789Z,101007.91
2022-10-29T22:21:13.895Z,101005.78
2022-10-29T22:23:53.495Z,101000.75
2022-10-29T22:26:24.840Z,100996.22
2022-10-29T22:28:53.451Z,100986.31
2022-10-29T22:31:22.483Z,100988.97
2022-10-29T22:33:50.549Z,100991.41
2022-10-29T22:36:21.086Z,100988.34
2022-10-29T22:39:00.156Z,100976.88
2022-10-29T22:41:28.573Z,100977.88
2022-10-29T22:43:56.815Z,100972.97
2022-10-29T22:46:27.844Z,100976.38
2022-10-29T22:48:55.972Z,100973.88
2022-10-29T22:51:28.623Z,100977.16
2022-10-29T22:53:56.536Z,100987.50
2022-10-29T22:56:25.490Z,100984.50
2022-10-29T22:58:52.895Z,100988.75
2022-10-29T23:01:22.800Z,100994.66
2022-10-29T23:03:50.769Z,101007.59
2022-10-29T23:06:20.228Z,101000.00
2022-10-29T23:08:50.465Z,100999.47
2022-10-29T23:11:20.712Z,100997.31
2022-10-29T23:13:53.157Z,100999.47
2022-10-29T23:16:21.590Z,100988.78
2022-10-29T23:18:50.365Z,100984.44
2022-10-29T23:21:18.094Z,100987.94
2022-10-29T23:23:46.093Z,100986.31
2022-10-29T23:26:13.644Z,100975.81
2022-10-29T23:28:41.397Z,100976.28
2022-10-29T23:31:15.129Z,100983.13
2022-10-29T23:33:47.209Z,100980.69
2022-10-29T23:36:16.625Z,100976.59
2022-10-29T23:38:44.033Z,100967.97
2022-10-29T23:41:11.911Z,100977.13
2022-10-29T23:43:39.297Z,100971.91
2022-10-29T23:46:06.974Z,100971.59
2022-10-29T23:48:34.251Z,100961.19
2022-10-29T23:51:01.616Z,100964.84
2022-10-29T23:53:28.923Z,100956.28
2022-10-29T23:55:56.377Z,100945.72
2022-10-29T23:58:23.759Z,100951.47
